Time;durP1;ratioP1;P1;durP2;ratioP2;P2;SDS_P1;SDS_P2;PMS_P1;PMS_P2;Temp;Humidity;BMP_temperature;BMP_pressure;BME280_temperature;BME280_humidity;BME280_pressure;Samples;Min_cycle;Max_cycle;Signal;HPM_P1;HPM_P2
2022/10/13 00:01:25;;;;;;;51.17;18.40;;;;;;;6.80;86.09;100138.94;8520983;27;20057;-81
2022/10/13 00:05:28;;;;;;;48.70;19.30;;;;;;;6.77;86.18;100144.81;8512657;27;20038;-80
2022/10/13 00:09:29;;;;;;;45.42;20.17;;;;;;;6.75;86.41;100130.84;8519953;27;20062;-80
2022/10/13 00:13:30;;;;;;;50.22;20.10;;;;;;;6.71;86.51;100129.75;8509112;27;20053;-80
2022/10/13 00:17:30;;;;;;;47.45;21.58;;;;;;;6.64;86.67;100129.16;8508331;27;20051;-81
2022/10/13 00:21:31;;;;;;;50.60;20.55;;;;;;;6.63;86.84;100116.81;8505928;27;20066;-80
2022/10/13 00:25:32;;;;;;;51.63;21.05;;;;;;;6.59;87.18;100115.69;8517490;27;20074;-82
2022/10/13 00:29:34;;;;;;;54.22;21.77;;;;;;;6.59;86.88;100121.06;8476184;27;20058;-81
2022/10/13 00:33:34;;;;;;;46.53;22.02;;;;;;;6.57;87.08;100112.47;8505793;27;20051;-80
2022/10/13 00:37:36;;;;;;;55.60;21.90;;;;;;;6.55;86.97;100114.63;8455995;27;20072;-81
2022/10/13 00:41:36;;;;;;;58.85;23.30;;;;;;;6.52;87.32;100115.09;8506623;27;20475;-80
2022/10/13 00:45:37;;;;;;;66.90;23.85;;;;;;;6.50;87.30;100118.06;8510773;27;20412;-81
2022/10/13 00:49:38;;;;;;;57.47;23.60;;;;;;;6.47;87.68;100112.38;8519160;27;20139;-81
2022/10/13 00:53:40;;;;;;;57.78;23.40;;;;;;;6.46;87.75;100110.75;8514978;27;20125;-82
2022/10/13 00:57:43;;;;;;;54.85;24.17;;;;;;;6.43;88.15;100106.72;8482245;27;20432;-81
2022/10/13 01:01:44;;;;;;;53.50;23.17;;;;;;;6.44;88.16;100102.19;8484076;27;20050;-81
2022/10/13 01:05:45;;;;;;;52.92;22.42;;;;;;;6.42;88.10;100099.75;8509296;27;20058;-82
2022/10/13 01:09:46;;;;;;;52.20;21.95;;;;;;;6.41;88.23;100098.13;8515831;27;20516;-80
2022/10/13 01:14:13;;;;;;;57.17;22.55;;;;;;;6.40;88.28;100095.72;8512434;27;20170;-81
2022/10/13 01:18:20;;;;;;;51.95;22.38;;;;;;;6.38;88.43;100087.09;8342365;28;20626;-80
2022/10/13 01:22:39;;;;;;;53.92;22.40;;;;;;;6.38;88.40;100087.09;8295861;28;20525;-82
2022/10/13 01:26:55;;;;;;;56.75;24.15;;;;;;;6.35;88.15;100083.06;8332734;28;20052;-82
2022/10/13 01:31:02;;;;;;;48.65;21.48;;;;;;;6.34;88.29;100090.28;8306526;28;20049;-82
2022/10/13 01:35:25;;;;;;;52.75;22.20;;;;;;;6.32;88.43;100079.03;8343866;28;20198;-81
2022/10/13 01:39:36;;;;;;;51.63;23.35;;;;;;;6.33;88.33;100085.19;8328570;28;20465;-81
2022/10/13 01:43:49;;;;;;;52.72;23.02;;;;;;;6.31;88.34;100077.41;8350452;28;20071;-82
2022/10/13 01:47:51;;;;;;;60.72;23.38;;;;;;;6.29;88.38;100079.53;8333335;28;20041;-81
2022/10/13 01:51:53;;;;;;;52.42;22.38;;;;;;;6.26;88.46;100074.69;8330051;28;20513;-81
2022/10/13 01:55:56;;;;;;;53.38;22.52;;;;;;;6.27;88.30;100075.50;8435345;27;20096;-80
2022/10/13 02:00:04;;;;;;;56.65;23.30;;;;;;;6.22;88.59;100068.22;8490367;27;20456;-80
2022/10/13 02:04:16;;;;;;;61.65;24.25;;;;;;;6.21;88.62;100061.22;8469910;27;20048;-83
2022/10/13 02:08:29;;;;;;;51.35;24.20;;;;;;;6.20;88.86;100059.59;8478244;27;20039;-81
2022/10/13 02:12:54;;;;;;;60.47;23.38;;;;;;;6.20;88.52;100059.59;8492455;27;20035;-81
2022/10/13 02:16:58;;;;;;;51.10;23.75;;;;;;;6.19;88.76;100047.25;8505132;27;20098;-80
2022/10/13 02:21:02;;;;;;;53.30;22.48;;;;;;;6.15;88.92;100046.16;8505433;27;20126;-80
2022/10/13 02:25:06;;;;;;;59.05;23.60;;;;;;;6.15;88.97;100042.66;8526198;27;20043;-81
2022/10/13 02:29:12;;;;;;;54.42;23.60;;;;;;;6.15;88.99;100040.78;8505963;27;20075;-80
2022/10/13 02:33:14;;;;;;;51.85;24.10;;;;;;;6.15;89.01;100046.16;8506138;27;20031;-81
2022/10/13 02:37:15;;;;;;;62.47;24.52;;;;;;;6.13;88.92;100034.91;8523997;27;20107;-81
2022/10/13 02:41:16;;;;;;;52.13;23.70;;;;;;;6.10;89.18;100043.44;8523574;27;20121;-81
2022/10/13 02:45:17;;;;;;;51.65;22.95;;;;;;;6.07;89.38;100035.91;8514426;27;20054;-80
2022/10/13 02:49:18;;;;;;;58.90;23.33;;;;;;;6.07;89.36;100043.97;8505423;27;20047;-81
2022/10/13 02:53:19;;;;;;;62.10;24.73;;;;;;;6.07;89.47;100038.59;8511065;27;20043;-80
2022/10/13 02:57:20;;;;;;;50.90;23.52;;;;;;;6.04;89.52;100039.09;8496100;27;20051;-82
2022/10/13 03:01:21;;;;;;;56.72;23.40;;;;;;;6.02;89.59;100025.16;8504622;27;20487;-82
2022/10/13 03:05:22;;;;;;;62.97;24.42;;;;;;;6.01;89.58;100028.91;8492961;27;20054;-80
2022/10/13 03:09:23;;;;;;;55.83;23.27;;;;;;;6.02;89.55;100030.53;8487759;27;20085;-81
2022/10/13 03:13:24;;;;;;;59.42;23.35;;;;;;;6.00;89.77;100035.31;8494996;27;20103;-81
2022/10/13 03:17:25;;;;;;;49.28;24.38;;;;;;;5.99;89.93;100036.38;8490437;27;20142;-81
2022/10/13 03:21:27;;;;;;;56.53;24.88;;;;;;;5.99;89.89;100036.38;8519599;27;20091;-80
2022/10/13 03:25:28;;;;;;;55.88;24.52;;;;;;;5.99;89.99;100041.75;8506405;27;20047;-83
2022/10/13 03:29:29;;;;;;;54.47;24.58;;;;;;;5.97;89.89;100038.53;8507506;27;20262;-82
2022/10/13 03:33:30;;;;;;;61.85;26.33;;;;;;;5.96;90.23;100036.91;8509988;27;20039;-80
2022/10/13 03:37:31;;;;;;;67.43;25.77;;;;;;;5.94;90.25;100033.66;8505672;27;20051;-79
2022/10/13 03:41:32;;;;;;;57.78;26.13;;;;;;;5.94;90.24;100033.66;8507301;27;20038;-80
2022/10/13 03:45:33;;;;;;;68.50;28.23;;;;;;;5.94;90.21;100033.66;8497093;27;20412;-79
2022/10/13 03:49:37;;;;;;;62.13;26.17;;;;;;;5.91;90.12;100023.44;8525421;27;20068;-80
2022/10/13 03:53:42;;;;;;;64.68;26.83;;;;;;;5.89;90.05;100026.38;8511271;27;20042;-81
2022/10/13 03:57:42;;;;;;;65.03;28.63;;;;;;;5.89;90.11;100014.84;8506186;27;20062;-81
2022/10/13 04:01:44;;;;;;;64.05;28.55;;;;;;;5.88;90.04;100023.94;8508131;27;20662;-81
2022/10/13 04:05:45;;;;;;;57.05;26.95;;;;;;;5.86;90.26;100015.34;8483706;27;20490;-80
2022/10/13 04:09:46;;;;;;;67.63;28.58;;;;;;;5.84;90.18;100006.72;8504892;27;20043;-81
2022/10/13 04:13:47;;;;;;;67.60;29.17;;;;;;;5.83;90.41;100010.47;8512325;27;20559;-81
2022/10/13 04:17:48;;;;;;;73.32;28.88;;;;;;;5.81;90.33;100009.94;8482470;27;20051;-81
2022/10/13 04:21:49;;;;;;;63.35;28.23;;;;;;;5.80;90.28;100011.00;8501266;27;20074;-81
2022/10/13 04:25:50;;;;;;;65.57;28.55;;;;;;;5.80;90.18;100011.00;8505609;27;20415;-81
2022/10/13 04:29:52;;;;;;;63.22;29.15;;;;;;;5.78;90.39;100007.75;8501660;27;20047;-81
2022/10/13 04:33:53;;;;;;;72.95;30.80;;;;;;;5.73;90.37;100005.84;8519084;27;20051;-82
2022/10/13 04:37:56;;;;;;;68.13;29.05;;;;;;;5.72;90.57;99998.03;8500757;27;21659;-82
2022/10/13 04:41:57;;;;;;;63.25;30.15;;;;;;;5.73;90.64;100005.03;8521936;27;20048;-81
2022/10/13 04:46:11;;;;;;;73.05;29.83;;;;;;;5.71;90.72;100012.53;8501804;27;20110;-81
2022/10/13 04:50:12;;;;;;;67.85;29.55;;;;;;;5.70;90.64;100005.53;8500009;27;20108;-81
2022/10/13 04:54:13;;;;;;;74.03;30.17;;;;;;;5.69;90.75;100003.94;8500464;27;20236;-82
2022/10/13 04:58:14;;;;;;;70.82;31.27;;;;;;;5.68;90.77;100003.13;8501435;27;20051;-83
2022/10/13 05:02:17;;;;;;;62.35;30.45;;;;;;;5.69;90.78;100009.28;8481153;27;20145;-82
2022/10/13 05:06:21;;;;;;;63.08;29.77;;;;;;;5.67;90.61;100016.75;8532965;27;20043;-82
2022/10/13 05:10:21;;;;;;;70.22;30.98;;;;;;;5.66;90.76;100009.81;8517528;27;20054;-81
2022/10/13 05:14:22;;;;;;;70.15;31.67;;;;;;;5.64;90.71;100006.56;8505353;27;20405;-81
2022/10/13 05:18:23;;;;;;;67.80;30.38;;;;;;;5.61;90.75;100001.69;8521861;27;20062;-81
2022/10/13 05:22:27;;;;;;;75.82;31.92;;;;;;;5.59;90.86;99998.47;8502032;27;20047;-80
2022/10/13 05:26:30;;;;;;;77.55;32.60;;;;;;;5.56;90.89;99993.59;8531030;27;20050;-80
2022/10/13 05:30:32;;;;;;;72.60;32.88;;;;;;;5.55;91.03;99997.38;8504712;27;20392;-82
2022/10/13 05:34:33;;;;;;;67.88;32.47;;;;;;;5.52;91.47;99988.78;8504806;27;20389;-81
2022/10/13 05:38:34;;;;;;;75.97;31.15;;;;;;;5.52;91.27;99994.13;8499948;27;20088;-81
2022/10/13 05:42:35;;;;;;;73.72;31.30;;;;;;;5.53;91.29;99990.38;8498838;27;20540;-82
2022/10/13 05:46:37;;;;;;;72.05;30.98;;;;;;;5.57;91.16;99995.22;8479949;27;20031;-79
2022/10/13 05:50:37;;;;;;;63.20;30.45;;;;;;;5.57;91.11;99984.50;8524853;27;20118;-81
2022/10/13 05:54:42;;;;;;;66.35;30.33;;;;;;;5.58;91.40;99989.63;8429438;27;20071;-81
2022/10/13 05:58:46;;;;;;;66.25;30.75;;;;;;;5.58;91.22;99986.13;8495964;27;20047;-81
2022/10/13 06:02:52;;;;;;;67.22;30.52;;;;;;;5.63;91.09;99983.50;8474201;27;20043;-82
2022/10/13 06:06:53;;;;;;;63.30;30.35;;;;;;;5.66;90.93;99988.38;8493139;27;20524;-81
2022/10/13 06:10:54;;;;;;;67.20;30.02;;;;;;;5.68;90.91;99991.59;8494666;27;20095;-81
2022/10/13 06:14:55;;;;;;;68.18;30.30;;;;;;;5.71;90.90;99986.50;8447917;28;20390;-81
2022/10/13 06:18:56;;;;;;;75.20;30.50;;;;;;;5.74;90.99;99987.88;8457395;28;20138;-82
2022/10/13 06:22:57;;;;;;;74.30;31.38;;;;;;;5.76;90.92;99983.09;8456437;28;20052;-82
2022/10/13 06:26:59;;;;;;;69.85;32.05;;;;;;;5.81;90.67;99983.13;8434515;28;20523;-84
2022/10/13 06:31:03;;;;;;;63.33;29.65;;;;;;;5.85;90.31;99976.19;8457447;28;20075;-82
2022/10/13 06:35:05;;;;;;;70.00;32.30;;;;;;;5.90;90.53;99973.56;8457579;28;20133;-81
2022/10/13 06:39:06;;;;;;;70.45;31.67;;;;;;;5.96;90.63;99972.56;8402586;28;20039;-83
2022/10/13 06:43:07;;;;;;;69.85;31.30;;;;;;;6.06;90.40;99967.25;8455847;28;20050;-84
2022/10/13 06:47:08;;;;;;;73.53;33.30;;;;;;;6.12;90.38;99971.59;8457116;28;20052;-83
2022/10/13 06:51:10;;;;;;;73.90;33.47;;;;;;;6.22;90.29;99965.47;8471897;27;20047;-82
2022/10/13 06:55:11;;;;;;;81.68;33.90;;;;;;;6.31;89.94;99963.91;8495403;27;20114;-83
2022/10/13 06:59:12;;;;;;;77.55;34.10;;;;;;;6.41;89.95;99973.88;8495355;27;20035;-84
2022/10/13 07:03:13;;;;;;;78.20;34.28;;;;;;;6.49;89.85;99965.38;8494974;27;20070;-83
2022/10/13 07:07:17;;;;;;;75.13;34.63;;;;;;;6.58;89.65;99969.16;8511011;27;20051;-80
2022/10/13 07:11:18;;;;;;;83.18;35.40;;;;;;;6.67;89.68;99962.22;8520591;27;20034;-82
2022/10/13 07:15:19;;;;;;;77.07;33.80;;;;;;;6.78;89.46;99963.88;8528715;27;20051;-83
2022/10/13 07:19:20;;;;;;;75.28;33.67;;;;;;;6.86;89.21;99949.97;8460670;27;20471;-83
2022/10/13 07:23:21;;;;;;;89.85;36.67;;;;;;;6.96;89.15;99949.97;8526533;27;20047;-83
2022/10/13 07:27:22;;;;;;;88.05;36.72;;;;;;;7.06;89.08;99966.13;8524700;27;20200;-82
2022/10/13 07:31:23;;;;;;;76.90;33.60;;;;;;;7.15;88.87;99964.53;8501087;27;20039;-82
2022/10/13 07:35:24;;;;;;;80.28;36.13;;;;;;;7.26;88.99;99959.16;8498273;27;20453;-81
2022/10/13 07:39:26;;;;;;;72.18;33.67;;;;;;;7.36;88.43;99953.81;8524006;27;20072;-82
2022/10/13 07:43:27;;;;;;;75.95;34.97;;;;;;;7.45;88.50;99949.53;8503448;27;20046;-81
2022/10/13 07:47:28;;;;;;;77.85;36.65;;;;;;;7.58;88.28;99946.31;8478569;27;20055;-82
2022/10/13 07:51:29;;;;;;;84.32;35.40;;;;;;;7.70;88.28;99944.19;8511448;27;20094;-84
2022/10/13 07:55:30;;;;;;;82.60;36.80;;;;;;;7.77;88.26;99944.72;8494509;28;20126;-84
2022/10/13 07:59:32;;;;;;;93.57;36.03;;;;;;;7.87;88.14;99933.94;8494457;28;20070;-81
2022/10/13 08:03:34;;;;;;;87.90;38.88;;;;;;;8.02;87.85;99931.25;8493910;27;20055;-82
2022/10/13 08:07:38;;;;;;;96.38;39.10;;;;;;;8.12;87.47;99929.59;8508679;27;20042;-82
2022/10/13 08:11:39;;;;;;;79.47;38.58;;;;;;;8.26;87.54;99930.63;8480761;27;20055;-82
2022/10/13 08:15:41;;;;;;;82.28;37.13;;;;;;;8.43;87.25;99920.38;8532832;27;20070;-83
2022/10/13 08:19:42;;;;;;;78.97;35.88;;;;;;;8.61;87.18;99917.09;8459351;27;20070;-82
2022/10/13 08:23:43;;;;;;;72.82;34.40;;;;;;;8.75;86.92;99923.50;8507298;27;20379;-84
2022/10/13 08:27:44;;;;;;;68.50;31.52;;;;;;;8.80;86.57;99914.56;8501398;27;20074;-82
2022/10/13 08:31:45;;;;;;;76.20;30.85;;;;;;;8.95;86.38;99911.00;8500230;27;20045;-82
2022/10/13 08:35:46;;;;;;;65.07;30.23;;;;;;;9.08;86.06;99905.00;8513047;27;20487;-82
2022/10/13 08:39:47;;;;;;;67.97;29.73;;;;;;;9.19;85.76;99911.94;8517974;27;20099;-83
2022/10/13 08:43:55;;;;;;;66.47;27.65;;;;;;;9.35;85.35;99910.75;8515150;27;20498;-81
2022/10/13 08:47:59;;;;;;;64.43;27.75;;;;;;;9.52;85.08;99911.13;8507069;27;20441;-83
2022/10/13 08:52:04;;;;;;;58.95;26.73;;;;;;;9.69;84.68;99911.53;8510598;27;20090;-82
2022/10/13 08:56:10;;;;;;;58.35;27.40;;;;;;;9.88;84.36;99914.34;8463393;27;20211;-82
2022/10/13 09:00:14;;;;;;;58.38;26.35;;;;;;;10.03;83.99;99910.69;8498054;27;20430;-85
2022/10/13 09:04:29;;;;;;;64.55;25.70;;;;;;;10.14;83.52;99913.00;8510423;27;20047;-82
2022/10/13 09:08:43;;;;;;;58.13;25.98;;;;;;;10.21;83.29;99895.66;8479007;27;20130;-82
2022/10/13 09:12:44;;;;;;;51.13;24.15;;;;;;;10.41;82.68;99909.78;8481573;27;20531;-84
2022/10/13 09:16:46;;;;;;;50.08;23.92;;;;;;;10.61;81.96;99899.81;8514020;27;20060;-84
2022/10/13 09:20:46;;;;;;;55.05;24.40;;;;;;;10.80;80.75;99903.34;8513241;27;20051;-82
2022/10/13 09:25:20;;;;;;;51.38;23.92;;;;;;;10.97;80.42;99903.63;8466785;27;20051;-85
2022/10/13 09:29:25;;;;;;;48.88;21.27;;;;;;;11.11;80.30;99899.09;8497917;27;20043;-82
2022/10/13 09:33:26;;;;;;;45.53;21.52;;;;;;;11.25;79.84;99900.00;8497070;27;20047;-82
2022/10/13 09:37:27;;;;;;;43.50;20.40;;;;;;;11.42;78.99;99889.44;8515254;27;20052;-81
2022/10/13 09:41:28;;;;;;;48.50;21.17;;;;;;;11.59;78.57;99894.28;8491364;27;20057;-82
2022/10/13 09:45:30;;;;;;;59.28;24.33;;;;;;;11.80;78.38;99894.78;8477450;27;20054;-81
2022/10/13 09:49:43;;;;;;;50.88;22.60;;;;;;;11.94;77.74;99892.94;8477743;27;20085;-82
2022/10/13 09:53:46;;;;;;;44.80;20.00;;;;;;;12.05;77.32;99888.94;8486848;27;20139;-80
2022/10/13 09:57:50;;;;;;;50.55;21.23;;;;;;;12.10;76.85;99886.13;8482012;27;20047;-82
2022/10/13 10:01:53;;;;;;;40.53;20.13;;;;;;;12.25;76.68;99880.41;8501131;27;20089;-81
2022/10/13 10:05:57;;;;;;;38.97;19.13;;;;;;;12.41;76.07;99877.41;8484716;27;20104;-83
2022/10/13 10:10:21;;;;;;;43.30;20.40;;;;;;;12.60;75.31;99888.91;8508925;27;20047;-82
2022/10/13 10:14:28;;;;;;;46.80;18.88;;;;;;;12.72;74.65;99878.38;8520247;27;20125;-83
2022/10/13 10:18:37;;;;;;;48.83;20.38;;;;;;;12.83;74.59;99879.75;8496338;27;20495;-81
2022/10/13 10:22:53;;;;;;;43.70;19.00;;;;;;;12.94;74.24;99867.59;8489949;27;20067;-85
2022/10/13 10:27:03;;;;;;;36.67;18.73;;;;;;;13.08;73.37;99854.78;8496098;27;20094;-82
2022/10/13 10:31:25;;;;;;;40.45;18.95;;;;;;;13.25;73.27;99853.34;8497978;27;20046;-83
2022/10/13 10:36:00;;;;;;;40.17;18.23;;;;;;;13.35;73.26;99847.66;8495019;27;20051;-82
2022/10/13 10:40:32;;;;;;;44.78;16.63;;;;;;;13.44;73.19;99845.81;8477633;27;20050;-83
2022/10/13 10:44:40;;;;;;;44.33;18.08;;;;;;;13.55;72.94;99847.16;8493722;27;20074;-84
2022/10/13 10:48:44;;;;;;;49.25;18.95;;;;;;;13.66;72.96;99837.66;8497778;27;20491;-81
2022/10/13 10:52:55;;;;;;;39.00;16.63;;;;;;;13.74;72.92;99828.75;8508867;27;20043;-84
2022/10/13 10:57:15;;;;;;;39.80;16.50;;;;;;;13.90;72.05;99827.25;8496126;27;20055;-82
2022/10/13 11:01:48;;;;;;;36.58;15.02;;;;;;;13.92;71.86;99814.13;8502248;27;20399;-83
2022/10/13 11:06:00;;;;;;;33.85;14.85;;;;;;;14.09;71.88;99818.03;8350960;28;20068;-82
2022/10/13 11:10:20;;;;;;;36.00;15.77;;;;;;;14.21;72.06;99816.31;8330900;28;20060;-82
2022/10/13 11:14:27;;;;;;;33.90;14.85;;;;;;;14.33;71.50;99807.56;8330926;28;20514;-83
2022/10/13 11:19:11;;;;;;;31.00;12.98;;;;;;;14.46;70.69;99798.50;8335790;28;20151;-83
2022/10/13 11:23:12;;;;;;;32.30;14.20;;;;;;;14.45;70.70;99788.75;8254167;28;20081;-83
2022/10/13 11:27:13;;;;;;;34.50;14.45;;;;;;;14.57;69.81;99791.66;8253763;28;20508;-84
2022/10/13 11:31:14;;;;;;;29.98;15.18;;;;;;;14.62;69.99;99783.34;8259207;28;20077;-83
2022/10/13 11:35:23;;;;;;;30.55;13.05;;;;;;;14.63;70.06;99774.06;8263493;28;20061;-83
2022/10/13 11:39:27;;;;;;;31.30;12.97;;;;;;;14.71;69.88;99765.09;8258197;28;20078;-83
2022/10/13 11:43:49;;;;;;;32.72;13.95;;;;;;;14.85;69.29;99758.72;8328341;28;20128;-81
2022/10/13 11:48:32;;;;;;;28.75;13.38;;;;;;;14.96;69.29;99755.34;8329892;28;20097;-83
2022/10/13 11:52:39;;;;;;;24.73;12.05;;;;;;;15.10;68.39;99749.72;8294637;28;20285;-85
2022/10/13 11:56:44;;;;;;;26.05;11.40;;;;;;;15.12;68.47;99752.94;8295876;28;20050;-82
2022/10/13 12:00:58;;;;;;;33.58;12.02;;;;;;;15.19;68.45;99747.78;8365698;28;20084;-83
2022/10/13 12:05:20;;;;;;;29.83;11.93;;;;;;;15.28;67.93;99734.94;8389321;28;20470;-83
2022/10/13 12:09:22;;;;;;;31.75;10.98;;;;;;;15.25;67.91;99732.88;8377769;28;20053;-83
2022/10/13 12:13:28;;;;;;;28.05;10.60;;;;;;;15.32;67.27;99730.47;8358447;28;20099;-82
2022/10/13 12:17:34;;;;;;;22.15;10.38;;;;;;;15.37;67.32;99727.56;8341572;28;20111;-83
2022/10/13 12:21:50;;;;;;;24.67;9.73;;;;;;;15.39;67.37;99719.88;8385573;28;21009;-84
2022/10/13 12:25:57;;;;;;;26.13;9.57;;;;;;;15.40;67.59;99721.47;8371988;28;20050;-84
2022/10/13 12:29:59;;;;;;;23.05;9.65;;;;;;;15.46;67.36;99720.16;8472157;27;20057;-83
2022/10/13 12:34:01;;;;;;;23.83;9.85;;;;;;;15.46;66.64;99709.28;8509230;27;20078;-83
2022/10/13 12:38:06;;;;;;;22.52;8.88;;;;;;;15.47;66.09;99710.88;8519178;27;20091;-83
2022/10/13 12:42:10;;;;;;;24.50;8.45;;;;;;;15.45;66.59;99713.13;8501480;27;20118;-83
2022/10/13 12:46:11;;;;;;;17.30;8.35;;;;;;;15.45;67.11;99713.13;8496561;27;20045;-83
2022/10/13 12:50:26;;;;;;;19.90;8.07;;;;;;;15.48;66.84;99712.50;8505758;27;20450;-83
2022/10/13 12:54:32;;;;;;;23.40;8.68;;;;;;;15.49;66.27;99714.06;8509370;27;20046;-82
2022/10/13 12:58:34;;;;;;;20.17;8.38;;;;;;;15.70;65.56;99702.50;8480045;27;20068;-85
2022/10/13 13:02:36;;;;;;;18.63;8.45;;;;;;;16.70;63.08;99702.47;8414858;28;20545;-83
2022/10/13 13:06:36;;;;;;;19.63;8.25;;;;;;;17.51;61.83;99705.28;8391805;28;20087;-85
2022/10/13 13:10:53;;;;;;;21.58;8.00;;;;;;;18.04;60.70;99711.69;8361966;28;20171;-83
2022/10/13 13:14:55;;;;;;;17.65;8.38;;;;;;;18.11;59.51;99712.72;8375307;28;20055;-83
2022/10/13 13:18:56;;;;;;;18.25;7.97;;;;;;;18.23;60.19;99702.91;8431611;28;20189;-83
2022/10/13 13:22:58;;;;;;;21.20;7.65;;;;;;;18.19;61.22;99697.31;8395639;28;20060;-83
2022/10/13 13:27:30;;;;;;;28.48;12.40;;;;;;;17.94;61.67;99702.03;8365108;28;20045;-83
2022/10/13 13:31:31;;;;;;;25.85;9.88;;;;;;;17.51;62.16;99696.28;8390075;28;20103;-81
2022/10/13 13:35:32;;;;;;;36.97;16.40;;;;;;;17.22;62.34;99692.63;8453616;28;20064;-82
2022/10/13 13:39:33;;;;;;;15.07;7.50;;;;;;;17.15;61.40;99692.38;8446849;28;20131;-83
2022/10/13 13:43:34;;;;;;;18.02;7.78;;;;;;;17.00;62.62;99679.38;8459799;28;20051;-83
2022/10/13 13:47:35;;;;;;;19.10;7.38;;;;;;;16.68;62.24;99678.25;8459549;28;20421;-83
2022/10/13 13:51:36;;;;;;;15.45;7.55;;;;;;;16.54;62.73;99677.72;8470442;27;20043;-82
2022/10/13 13:55:37;;;;;;;14.57;7.97;;;;;;;16.38;63.27;99674.81;8517184;27;20617;-83
2022/10/13 13:59:39;;;;;;;31.27;11.10;;;;;;;16.21;63.63;99666.75;8515364;27;21400;-83
2022/10/13 14:03:40;;;;;;;17.50;9.10;;;;;;;16.08;64.31;99659.63;8503808;27;20051;-82
2022/10/13 14:07:41;;;;;;;22.95;10.05;;;;;;;15.94;64.76;99653.66;8522085;27;20452;-82
2022/10/13 14:11:42;;;;;;;17.83;7.93;;;;;;;15.84;64.80;99645.88;8517347;27;20047;-82
2022/10/13 14:15:45;;;;;;;24.63;7.75;;;;;;;15.78;64.68;99644.47;8522771;27;20463;-81
2022/10/13 14:19:46;;;;;;;27.60;10.45;;;;;;;15.69;65.12;99646.44;8524650;27;20119;-82
2022/10/13 14:23:47;;;;;;;26.38;10.43;;;;;;;15.62;65.71;99647.75;8529897;27;20139;-81
2022/10/13 14:27:48;;;;;;;20.95;10.20;;;;;;;15.53;66.43;99638.84;8538290;27;20099;-81
2022/10/13 14:31:49;;;;;;;18.08;7.82;;;;;;;15.42;67.32;99647.66;8522149;27;20412;-82
2022/10/13 14:35:58;;;;;;;20.23;8.57;;;;;;;15.29;68.04;99648.66;8499189;27;20099;-81
2022/10/13 14:39:59;;;;;;;21.25;9.30;;;;;;;15.19;68.13;99638.94;8509344;27;20042;-81
2022/10/13 14:44:00;;;;;;;25.60;9.50;;;;;;;15.09;68.49;99639.31;8515375;27;20054;-81
2022/10/13 14:48:01;;;;;;;25.27;9.20;;;;;;;14.99;68.73;99639.66;8514368;27;20050;-81
2022/10/13 14:52:02;;;;;;;22.85;8.48;;;;;;;14.91;69.38;99632.34;8509872;27;20548;-82
2022/10/13 14:56:16;;;;;;;27.40;9.77;;;;;;;14.83;69.84;99630.44;8517885;27;20477;-81
2022/10/13 15:00:17;;;;;;;22.67;10.00;;;;;;;14.69;70.62;99631.44;8507088;27;20133;-82
2022/10/13 15:04:18;;;;;;;22.35;11.63;;;;;;;14.61;71.21;99632.22;8462812;27;20043;-81
2022/10/13 15:08:19;;;;;;;25.75;11.27;;;;;;;14.48;71.40;99630.50;8484798;27;20080;-81
2022/10/13 15:12:20;;;;;;;29.67;11.07;;;;;;;14.31;72.37;99625.03;8531521;27;20039;-81
2022/10/13 15:16:23;;;;;;;36.80;15.15;;;;;;;14.14;73.12;99617.69;8506286;27;20104;-81
2022/10/13 15:20:24;;;;;;;36.08;14.98;;;;;;;13.99;73.52;99611.94;8535779;27;20038;-81
2022/10/13 15:24:25;;;;;;;25.55;11.80;;;;;;;13.81;74.43;99628.22;8533070;27;20050;-81
2022/10/13 15:28:37;;;;;;;24.98;10.30;;;;;;;13.60;75.36;99616.34;8539879;27;20137;-82
2022/10/13 15:32:38;;;;;;;21.42;10.27;;;;;;;13.41;76.43;99618.53;8537297;27;20042;-81
2022/10/13 15:36:41;;;;;;;24.23;11.57;;;;;;;13.21;77.46;99627.25;8535946;27;20035;-82
2022/10/13 15:40:43;;;;;;;31.67;15.10;;;;;;;12.97;78.32;99614.81;8442759;27;20045;-81
2022/10/13 15:44:44;;;;;;;41.60;17.55;;;;;;;12.79;79.09;99618.56;8526337;27;20407;-81
2022/10/13 15:48:47;;;;;;;50.80;21.23;;;;;;;12.60;80.06;99615.25;8537832;27;20039;-80
2022/10/13 15:52:48;;;;;;;56.60;24.80;;;;;;;12.40;81.08;99611.16;8535900;27;20133;-81
2022/10/13 15:56:48;;;;;;;79.60;29.90;;;;;;;12.22;81.72;99610.22;8541336;27;20499;-82
2022/10/13 16:00:50;;;;;;;63.35;28.33;;;;;;;12.06;82.00;99616.28;8535343;27;20054;-80
2022/10/13 16:04:50;;;;;;;119.38;44.13;;;;;;;11.91;82.03;99614.72;8533977;27;20035;-81
2022/10/13 16:08:52;;;;;;;70.95;30.52;;;;;;;11.75;82.38;99616.16;8483282;27;20042;-81
2022/10/13 16:12:54;;;;;;;75.72;33.60;;;;;;;11.61;82.74;99620.78;8523520;27;20592;-81
2022/10/13 16:16:55;;;;;;;66.45;30.65;;;;;;;11.47;83.13;99620.00;8519759;27;20051;-81
2022/10/13 16:20:56;;;;;;;58.83;26.05;;;;;;;11.34;83.50;99614.28;8518584;27;20047;-81
2022/10/13 16:24:57;;;;;;;44.22;23.02;;;;;;;11.23;83.59;99615.59;8488331;27;20047;-81
2022/10/13 16:28:58;;;;;;;64.03;24.55;;;;;;;11.14;83.93;99614.69;8514119;27;20584;-81
2022/10/13 16:32:59;;;;;;;71.35;29.63;;;;;;;11.05;83.98;99619.16;8512821;27;20055;-81
2022/10/13 16:37:00;;;;;;;70.07;30.65;;;;;;;11.01;84.12;99612.78;8461107;27;20067;-82
2022/10/13 16:41:06;;;;;;;93.78;40.08;;;;;;;10.96;84.02;99610.16;8511724;27;20071;-81
2022/10/13 16:45:07;;;;;;;95.30;39.08;;;;;;;10.93;83.71;99616.19;8507879;27;20058;-81
2022/10/13 16:49:09;;;;;;;83.47;33.85;;;;;;;10.91;83.54;99612.97;8495819;27;20051;-81
2022/10/13 16:53:10;;;;;;;83.85;35.50;;;;;;;10.86;83.76;99615.75;8513077;27;20113;-81
2022/10/13 16:57:11;;;;;;;71.45;32.08;;;;;;;10.82;83.59;99609.34;8508406;27;20039;-82
2022/10/13 17:01:12;;;;;;;78.97;33.95;;;;;;;10.80;83.57;99606.13;8511384;27;20054;-81
2022/10/13 17:05:13;;;;;;;83.95;34.08;;;;;;;10.82;83.39;99603.94;8517477;27;20047;-80
2022/10/13 17:09:17;;;;;;;85.88;33.08;;;;;;;10.85;83.40;99596.03;8514938;27;20038;-81
2022/10/13 17:13:18;;;;;;;74.72;29.88;;;;;;;10.88;83.29;99597.34;8499097;27;20490;-81
2022/10/13 17:17:19;;;;;;;75.88;29.92;;;;;;;10.90;83.32;99600.53;8469217;27;20066;-81
2022/10/13 17:21:21;;;;;;;62.67;26.27;;;;;;;10.92;82.99;99592.94;8462789;27;20128;-81
2022/10/13 17:25:21;;;;;;;58.38;24.83;;;;;;;10.95;82.95;99603.16;8460711;27;20043;-81
2022/10/13 17:29:23;;;;;;;68.10;28.80;;;;;;;10.94;82.84;99590.75;8465426;27;20047;-81
2022/10/13 17:33:25;;;;;;;48.03;22.90;;;;;;;10.91;83.03;99591.34;8457747;27;20050;-81
2022/10/13 17:37:26;;;;;;;45.45;20.20;;;;;;;10.94;82.92;99596.16;8464987;27;20130;-81
2022/10/13 17:41:27;;;;;;;36.28;18.60;;;;;;;10.92;82.78;99588.34;8468868;27;20035;-81
2022/10/13 17:45:29;;;;;;;47.28;20.85;;;;;;;10.89;82.81;99588.16;8467952;27;20048;-81
2022/10/13 17:49:30;;;;;;;45.45;19.08;;;;;;;10.86;82.67;99588.72;8466141;27;20408;-81
2022/10/13 17:53:31;;;;;;;37.95;17.67;;;;;;;10.82;82.94;99587.72;8467560;27;20508;-81
2022/10/13 17:57:32;;;;;;;39.20;17.27;;;;;;;10.77;82.87;99585.13;8461557;27;20134;-81
2022/10/13 18:01:34;;;;;;;44.05;16.30;;;;;;;10.74;82.96;99574.91;8465348;27;20520;-81
2022/10/13 18:05:40;;;;;;;37.47;16.35;;;;;;;10.72;83.00;99577.13;8467345;27;20047;-81
2022/10/13 18:09:41;;;;;;;30.50;13.88;;;;;;;10.70;82.99;99579.31;8473862;27;20070;-81
2022/10/13 18:13:43;;;;;;;29.33;13.95;;;;;;;10.69;83.15;99577.69;8462891;27;20063;-81
2022/10/13 18:17:45;;;;;;;31.35;15.18;;;;;;;10.68;83.04;99562.63;8463864;27;20048;-81
2022/10/13 18:21:46;;;;;;;32.63;14.40;;;;;;;10.66;83.27;99575.59;8470961;27;20043;-81
2022/10/13 18:25:48;;;;;;;34.13;14.43;;;;;;;10.64;83.53;99581.28;8473542;27;20039;-81
2022/10/13 18:29:49;;;;;;;31.95;14.75;;;;;;;10.62;83.49;99582.69;8474089;27;20503;-80
2022/10/13 18:33:52;;;;;;;34.53;14.63;;;;;;;10.58;83.82;99577.88;8482139;27;20135;-81
2022/10/13 18:37:53;;;;;;;29.17;13.30;;;;;;;10.52;83.94;99573.66;8468766;27;20327;-81
2022/10/13 18:41:56;;;;;;;31.67;15.20;;;;;;;10.46;84.17;99574.88;8468495;27;20062;-80
2022/10/13 18:46:01;;;;;;;41.03;15.82;;;;;;;10.41;84.21;99576.84;8471741;27;20051;-81